createdAt,value
2018-04-28T00:00:51.162Z,58.76
2018-04-28T00:01:51.092Z,59.15
2018-04-28T00:02:51.017Z,58.29
2018-04-28T00:03:50.944Z,57.90
2018-04-28T00:04:50.872Z,58.58
2018-04-28T00:05:50.801Z,58.95
2018-04-28T00:06:50.729Z,58.29
2018-04-28T00:07:50.664Z,58.48
2018-04-28T00:08:50.586Z,58.76
2018-04-28T00:09:50.524Z,58.38
2018-04-28T00:10:50.440Z,58.48
2018-04-28T00:11:50.370Z,59.15
2018-04-28T00:12:50.937Z,59.44
2018-04-28T00:13:50.220Z,59.02
2018-04-28T00:14:50.153Z,59.59
2018-04-28T00:15:50.082Z,59.24
2018-04-28T00:16:50.007Z,60.74
2018-04-28T00:17:49.928Z,61.51
2018-04-28T00:18:49.862Z,61.79
2018-04-28T00:19:49.788Z,60.55
2018-04-28T00:20:49.713Z,61.13
2018-04-28T00:21:49.647Z,60.93
2018-04-28T00:22:49.588Z,60.27
2018-04-28T00:23:49.497Z,59.69
2018-04-28T00:24:49.426Z,60.49
2018-04-28T00:25:49.354Z,60.36
2018-04-28T00:26:49.280Z,60.74
2018-04-28T00:27:49.211Z,60.87
2018-04-28T00:28:49.140Z,60.84
2018-04-28T00:29:49.071Z,60.74
2018-04-28T00:30:49.000Z,60.36
2018-04-28T00:31:48.919Z,60.36
2018-04-28T00:32:48.848Z,60.64
2018-04-28T00:33:48.772Z,59.88
2018-04-28T00:34:48.707Z,59.78
2018-04-28T00:35:48.631Z,59.88
2018-04-28T00:36:48.559Z,59.53
2018-04-28T00:37:48.487Z,59.53
2018-04-28T00:38:48.413Z,58.76
2018-04-28T00:39:48.338Z,58.67
2018-04-28T00:40:48.267Z,58.51
2018-04-28T00:41:48.193Z,57.55
2018-04-28T00:42:48.118Z,57.46
2018-04-28T00:43:48.054Z,57.36
2018-04-28T00:44:47.978Z,57.17
2018-04-28T00:45:47.914Z,57.26
2018-04-28T00:46:47.832Z,57.36
2018-04-28T00:47:47.765Z,57.07
2018-04-28T00:48:47.688Z,57.26
2018-04-28T00:49:47.619Z,57.26
2018-04-28T00:50:47.546Z,57.17
2018-04-28T00:51:47.471Z,57.07
2018-04-28T00:52:47.419Z,57.07
2018-04-28T00:53:47.330Z,57.46
2018-04-28T00:54:47.265Z,57.07
2018-04-28T00:55:47.179Z,57.17
2018-04-28T00:56:47.110Z,57.55
2018-04-28T00:57:47.036Z,57.36
2018-04-28T00:58:46.966Z,57.55
2018-04-28T00:59:46.899Z,57.07
2018-04-28T01:00:46.820Z,57.36
2018-04-28T01:01:46.746Z,57.36
2018-04-28T01:02:46.678Z,57.46
2018-04-28T01:03:46.604Z,57.55
2018-04-28T01:04:46.531Z,57.17
2018-04-28T01:05:46.458Z,57.65
2018-04-28T01:06:46.382Z,57.55
2018-04-28T01:07:46.317Z,57.65
2018-04-28T01:08:46.243Z,58.51
2018-04-28T01:09:46.178Z,58.12
2018-04-28T01:10:46.097Z,58.12
2018-04-28T01:11:46.024Z,58.22
2018-04-28T01:12:45.951Z,58.12
2018-04-28T01:13:45.882Z,58.70
2018-04-28T01:14:45.807Z,58.89
2018-04-28T01:15:45.733Z,59.47
2018-04-28T01:16:45.664Z,59.66
2018-04-28T01:17:45.594Z,59.27
2018-04-28T01:18:45.519Z,59.56
2018-04-28T01:19:45.448Z,59.66
2018-04-28T01:20:45.378Z,59.56
2018-04-28T01:21:45.302Z,60.61
2018-04-28T01:22:45.233Z,60.30
2018-04-28T01:23:45.159Z,60.49
2018-04-28T01:24:45.086Z,60.68
2018-04-28T01:25:45.014Z,60.49
2018-04-28T01:26:44.958Z,62.01
2018-04-28T01:27:44.867Z,61.54
2018-04-28T01:28:44.796Z,61.54
2018-04-28T01:29:44.725Z,62.11
2018-04-28T01:30:44.652Z,61.72
2018-04-28T01:31:44.580Z,61.92
2018-04-28T01:32:44.519Z,61.63
2018-04-28T01:33:44.438Z,61.54
2018-04-28T01:34:44.365Z,61.63
2018-04-28T01:35:44.294Z,62.01
2018-04-28T01:36:44.220Z,62.97
2018-04-28T01:37:44.149Z,62.11
2018-04-28T01:38:44.076Z,62.68
2018-04-28T01:39:44.001Z,62.55
2018-04-28T01:40:43.955Z,63.60
2018-04-28T01:41:43.867Z,64.37
2018-04-28T01:42:43.787Z,63.80
2018-04-28T01:43:43.712Z,64.28
2018-04-28T01:44:43.640Z,64.56
2018-04-28T01:45:43.569Z,64.85
2018-04-28T01:46:43.502Z,65.33
2018-04-28T01:47:43.424Z,65.01
2018-04-28T01:48:43.351Z,65.58
2018-04-28T01:49:43.282Z,65.10
2018-04-28T01:50:43.213Z,65.20
2018-04-28T01:51:43.138Z,65.10
2018-04-28T01:52:43.065Z,65.01
2018-04-28T01:53:42.989Z,65.96
2018-04-28T01:54:42.918Z,65.58
2018-04-28T01:55:42.850Z,65.30
2018-04-28T01:56:42.774Z,64.81
2018-04-28T01:57:42.696Z,64.34
2018-04-28T01:58:42.628Z,64.47
2018-04-28T01:59:42.567Z,65.33
2018-04-28T02:00:42.489Z,65.10
2018-04-28T02:01:42.409Z,65.96
2018-04-28T02:02:42.339Z,66.06
2018-04-28T02:03:42.272Z,65.39
2018-04-28T02:04:42.189Z,65.30
2018-04-28T02:05:42.122Z,65.30
2018-04-28T02:06:42.046Z,65.39
2018-04-28T02:07:41.974Z,65.67
2018-04-28T02:08:41.904Z,65.20
2018-04-28T02:09:41.826Z,65.10
2018-04-28T02:10:41.757Z,65.58
2018-04-28T02:11:41.683Z,65.67
2018-04-28T02:12:41.612Z,66.06
2018-04-28T02:13:41.541Z,65.87
2018-04-28T02:14:41.468Z,65.67
2018-04-28T02:15:41.466Z,64.91
2018-04-28T02:16:41.322Z,65.39
2018-04-28T02:17:41.251Z,65.67
2018-04-28T02:18:41.173Z,65.39
2018-04-28T02:19:41.102Z,65.67
2018-04-28T02:20:41.024Z,65.87
2018-04-28T02:21:40.955Z,65.96
2018-04-28T02:22:40.884Z,66.44
2018-04-28T02:23:40.817Z,66.53
2018-04-28T02:24:40.738Z,66.06
2018-04-28T02:25:40.664Z,65.96
2018-04-28T02:26:40.601Z,66.35
2018-04-28T02:27:40.524Z,66.92
2018-04-28T02:28:40.448Z,66.72
2018-04-28T02:29:40.379Z,66.82
2018-04-28T02:30:40.302Z,66.92
2018-04-28T02:31:40.231Z,67.21
2018-04-28T02:32:40.151Z,67.58
2018-04-28T02:33:40.088Z,67.40
2018-04-28T02:34:40.015Z,67.11
2018-04-28T02:35:39.940Z,67.77
2018-04-28T02:36:39.868Z,67.97
2018-04-28T02:37:39.786Z,68.35
2018-04-28T02:38:39.726Z,67.58
2018-04-28T02:39:39.655Z,67.49
2018-04-28T02:40:39.573Z,67.49
2018-04-28T02:41:39.498Z,67.58
2018-04-28T02:42:39.429Z,67.40
2018-04-28T02:43:39.356Z,67.49
2018-04-28T02:44:39.286Z,67.87
2018-04-28T02:45:39.226Z,67.68
2018-04-28T02:46:39.142Z,68.06
2018-04-28T02:47:39.063Z,68.26
2018-04-28T02:48:38.995Z,67.77
2018-04-28T02:49:38.936Z,67.68
2018-04-28T02:50:38.841Z,66.53
2018-04-28T02:51:38.775Z,67.01
2018-04-28T02:52:38.701Z,66.82
2018-04-28T02:53:38.629Z,66.53
2018-04-28T02:54:38.557Z,65.87
2018-04-28T02:55:38.479Z,65.33
2018-04-28T02:56:38.406Z,64.47
2018-04-28T02:57:38.335Z,64.47
2018-04-28T02:58:38.267Z,64.47
2018-04-28T02:59:38.194Z,64.18
2018-04-28T03:00:38.120Z,64.09
2018-04-28T03:01:38.045Z,63.70
2018-04-28T03:02:37.972Z,63.32
2018-04-28T03:03:37.898Z,62.94
2018-04-28T03:04:37.826Z,62.75
2018-04-28T03:05:37.753Z,62.94
2018-04-28T03:06:37.729Z,62.84
2018-04-28T03:07:37.608Z,62.37
2018-04-28T03:08:37.533Z,62.37
2018-04-28T03:09:37.462Z,62.55
2018-04-28T03:10:37.401Z,62.55
2018-04-28T03:11:37.312Z,62.46
2018-04-28T03:12:37.272Z,62.46
2018-04-28T03:13:37.164Z,63.13
2018-04-28T03:14:37.103Z,62.94
2018-04-28T03:15:37.023Z,62.94
2018-04-28T03:16:36.951Z,62.46
2018-04-28T03:17:36.891Z,62.94
2018-04-28T03:18:36.804Z,62.18
2018-04-28T03:19:36.754Z,62.65
2018-04-28T03:20:36.659Z,62.37
2018-04-28T03:21:36.586Z,62.27
2018-04-28T03:22:36.509Z,62.08
2018-04-28T03:23:36.449Z,61.89
2018-04-28T03:24:36.368Z,62.27
2018-04-28T03:25:36.294Z,62.08
2018-04-28T03:26:36.227Z,61.98
2018-04-28T03:27:36.152Z,61.79
2018-04-28T03:28:36.081Z,61.22
2018-04-28T03:29:36.005Z,61.79
2018-04-28T03:30:35.941Z,61.32
2018-04-28T03:31:35.860Z,61.98
2018-04-28T03:32:35.790Z,61.89
2018-04-28T03:33:35.712Z,61.51
2018-04-28T03:34:35.640Z,61.79
2018-04-28T03:35:35.567Z,61.13
2018-04-28T03:36:35.495Z,61.79
2018-04-28T03:37:35.423Z,61.69
2018-04-28T03:38:35.348Z,61.03
2018-04-28T03:39:35.279Z,61.13
2018-04-28T03:40:35.200Z,61.32
2018-04-28T03:41:35.130Z,61.41
2018-04-28T03:42:35.060Z,61.60
2018-04-28T03:43:34.984Z,61.66
2018-04-28T03:44:34.917Z,61.60
2018-04-28T03:45:34.837Z,61.66
2018-04-28T03:46:34.768Z,62.24
2018-04-28T03:47:34.781Z,62.34
2018-04-28T03:48:34.620Z,62.62
2018-04-28T03:49:34.545Z,62.52
2018-04-28T03:50:34.476Z,62.81
2018-04-28T03:51:34.402Z,63.48
2018-04-28T03:52:34.328Z,63.29
2018-04-28T03:53:34.340Z,64.25
2018-04-28T03:54:34.182Z,63.76
2018-04-28T03:55:34.115Z,64.05
2018-04-28T03:56:34.036Z,63.86
2018-04-28T03:57:33.963Z,64.25
2018-04-28T03:58:33.894Z,64.34
2018-04-28T03:59:33.822Z,64.91
2018-04-28T04:00:33.748Z,64.53
2018-04-28T04:01:33.672Z,65.48
2018-04-28T04:02:33.596Z,65.67
2018-04-28T04:03:33.520Z,65.45
2018-04-28T04:04:33.455Z,65.77
2018-04-28T04:05:33.388Z,66.53
2018-04-28T04:06:33.306Z,66.41
2018-04-28T04:07:33.232Z,66.63
2018-04-28T04:08:33.157Z,66.63
2018-04-28T04:09:33.089Z,67.07
2018-04-28T04:10:33.014Z,68.03
2018-04-28T04:11:32.939Z,68.22
2018-04-28T04:12:32.876Z,67.46
2018-04-28T04:13:32.798Z,67.55
2018-04-28T04:14:32.722Z,67.74
2018-04-28T04:15:32.654Z,67.55
2018-04-28T04:16:32.677Z,68.03
2018-04-28T04:17:32.518Z,68.12
2018-04-28T04:18:32.434Z,68.12
2018-04-28T04:19:32.370Z,68.12
2018-04-28T04:20:32.283Z,67.83
2018-04-28T04:21:32.216Z,67.65
2018-04-28T04:22:32.139Z,67.46
2018-04-28T04:23:32.069Z,68.32
2018-04-28T04:24:31.992Z,67.27
2018-04-28T04:25:31.920Z,67.36
2018-04-28T04:26:31.856Z,67.27
2018-04-28T04:27:31.771Z,67.55
2018-04-28T04:28:31.699Z,67.46
2018-04-28T04:29:31.621Z,68.12
2018-04-28T04:30:31.552Z,67.74
2018-04-28T04:31:31.478Z,67.93
2018-04-28T04:32:31.407Z,68.41
2018-04-28T04:33:31.333Z,67.93
2018-04-28T04:34:31.260Z,67.93
2018-04-28T04:35:31.187Z,68.41
2018-04-28T04:36:31.112Z,69.08
2018-04-28T04:37:31.051Z,68.41
2018-04-28T04:38:30.966Z,68.12
2018-04-28T04:39:30.895Z,67.83
2018-04-28T04:40:30.824Z,68.12
2018-04-28T04:41:30.751Z,67.55
2018-04-28T04:42:30.673Z,68.12
2018-04-28T04:43:30.600Z,68.79
2018-04-28T04:44:30.527Z,67.83
2018-04-28T04:45:30.453Z,68.03
2018-04-28T04:46:30.386Z,68.22
2018-04-28T04:47:30.306Z,67.46
2018-04-28T04:48:30.238Z,67.36
2018-04-28T04:49:30.161Z,67.27
2018-04-28T04:50:30.089Z,68.12
2018-04-28T04:51:30.023Z,67.74
2018-04-28T04:52:29.940Z,67.27
2018-04-28T04:53:29.866Z,67.30
2018-04-28T04:54:29.802Z,67.27
2018-04-28T04:55:29.723Z,67.46
2018-04-28T04:56:29.660Z,66.72
2018-04-28T04:57:29.576Z,66.63
2018-04-28T04:58:29.506Z,66.44
2018-04-28T04:59:29.426Z,66.69
2018-04-28T05:00:29.357Z,66.82
2018-04-28T05:01:29.284Z,66.22
2018-04-28T05:02:29.209Z,65.77
2018-04-28T05:03:29.137Z,66.15
2018-04-28T05:04:29.063Z,65.64
2018-04-28T05:05:28.990Z,65.87
2018-04-28T05:06:28.921Z,65.74
2018-04-28T05:07:28.846Z,66.06
2018-04-28T05:08:28.846Z,65.67
2018-04-28T05:09:28.698Z,65.96
2018-04-28T05:10:28.621Z,65.30
2018-04-28T05:11:28.550Z,65.48
2018-04-28T05:12:28.477Z,65.48
2018-04-28T05:13:28.406Z,65.30
2018-04-28T05:14:28.335Z,65.67
2018-04-28T05:15:28.258Z,65.20
2018-04-28T05:16:28.185Z,65.20
2018-04-28T05:17:28.110Z,64.72
2018-04-28T05:18:28.040Z,65.30
2018-04-28T05:19:27.965Z,65.48
2018-04-28T05:20:27.892Z,64.81
2018-04-28T05:21:27.820Z,64.81
2018-04-28T05:22:27.748Z,64.53
2018-04-28T05:23:27.676Z,63.86
2018-04-28T05:24:27.602Z,64.43
2018-04-28T05:25:27.529Z,63.86
2018-04-28T05:26:27.456Z,64.34
2018-04-28T05:27:27.385Z,63.86
2018-04-28T05:28:27.322Z,64.25
2018-04-28T05:29:27.238Z,64.25
2018-04-28T05:30:27.157Z,64.15
2018-04-28T05:31:27.095Z,64.34
2018-04-28T05:32:27.018Z,63.86
2018-04-28T05:33:26.956Z,63.57
2018-04-28T05:34:26.872Z,63.48
2018-04-28T05:35:26.800Z,64.05
2018-04-28T05:36:26.733Z,64.25
2018-04-28T05:37:26.659Z,64.34
2018-04-28T05:38:26.587Z,64.25
2018-04-28T05:39:26.508Z,64.81
2018-04-28T05:40:26.440Z,65.39
2018-04-28T05:41:26.361Z,64.05
2018-04-28T05:42:26.290Z,63.29
2018-04-28T05:43:26.217Z,63.57
2018-04-28T05:44:26.145Z,63.29
2018-04-28T05:45:26.071Z,63.48
2018-04-28T05:46:25.999Z,63.96
2018-04-28T05:47:25.925Z,63.39
2018-04-28T05:48:25.863Z,63.39
2018-04-28T05:49:25.779Z,63.51
2018-04-28T05:50:25.716Z,63.60
2018-04-28T05:51:25.637Z,63.89
2018-04-28T05:52:25.564Z,64.18
2018-04-28T05:53:25.493Z,63.42
2018-04-28T05:54:25.413Z,62.84
2018-04-28T05:55:25.345Z,62.91
2018-04-28T05:56:25.272Z,62.75
2018-04-28T05:57:25.200Z,62.91
2018-04-28T05:58:25.132Z,63.03
2018-04-28T05:59:25.056Z,63.00
2018-04-28T06:00:24.982Z,62.94
2018-04-28T06:01:24.911Z,63.32
2018-04-28T06:02:24.839Z,62.81
2018-04-28T06:03:24.768Z,62.65
2018-04-28T06:04:24.693Z,63.32
2018-04-28T06:05:24.628Z,62.65
2018-04-28T06:06:24.549Z,62.94
2018-04-28T06:07:24.479Z,63.51
2018-04-28T06:08:24.405Z,63.23
2018-04-28T06:09:24.328Z,62.94
2018-04-28T06:10:24.257Z,62.37
2018-04-28T06:11:24.186Z,61.79
2018-04-28T06:12:24.109Z,62.46
2018-04-28T06:13:24.043Z,62.55
2018-04-28T06:14:23.968Z,61.79
2018-04-28T06:15:23.894Z,61.69
2018-04-28T06:16:23.826Z,61.41
2018-04-28T06:17:23.752Z,61.98
2018-04-28T06:18:23.682Z,61.60
2018-04-28T06:19:23.602Z,62.08
2018-04-28T06:20:23.543Z,62.08
2018-04-28T06:21:23.465Z,61.89
2018-04-28T06:22:23.390Z,62.55
2018-04-28T06:23:23.317Z,61.69
2018-04-28T06:24:23.247Z,61.69
2018-04-28T06:25:23.173Z,61.98
2018-04-28T06:26:23.107Z,62.08
2018-04-28T06:27:23.035Z,62.37
2018-04-28T06:28:22.955Z,61.79
2018-04-28T06:29:22.885Z,61.79
2018-04-28T06:30:22.813Z,61.98
2018-04-28T06:31:22.745Z,61.79
2018-04-28T06:32:22.671Z,61.79
2018-04-28T06:33:22.616Z,61.22
2018-04-28T06:34:22.530Z,61.82
2018-04-28T06:35:22.459Z,60.87
2018-04-28T06:36:22.379Z,61.16
2018-04-28T06:37:22.305Z,60.96
2018-04-28T06:38:22.234Z,61.25
2018-04-28T06:39:22.168Z,60.87
2018-04-28T06:40:22.091Z,61.16
2018-04-28T06:41:22.021Z,60.77
2018-04-28T06:42:21.949Z,60.77
2018-04-28T06:43:21.878Z,60.87
2018-04-28T06:44:21.804Z,60.39
2018-04-28T06:45:21.730Z,59.91
2018-04-28T06:46:21.663Z,59.81
2018-04-28T06:47:21.589Z,60.01
2018-04-28T06:48:21.519Z,59.15
2018-04-28T06:49:21.445Z,59.24
2018-04-28T06:50:21.371Z,59.34
2018-04-28T06:51:21.299Z,59.66
2018-04-28T06:52:21.239Z,59.63
2018-04-28T06:53:21.161Z,59.53
2018-04-28T06:54:21.082Z,58.38
2018-04-28T06:55:21.020Z,58.76
2018-04-28T06:56:20.949Z,59.34
2018-04-28T06:57:20.871Z,59.44
2018-04-28T06:58:20.798Z,59.91
2018-04-28T06:59:20.726Z,60.49
2018-04-28T07:00:20.654Z,60.58
2018-04-28T07:01:20.581Z,59.63
2018-04-28T07:02:20.518Z,59.53
2018-04-28T07:03:20.441Z,60.30
2018-04-28T07:04:20.368Z,60.49
2018-04-28T07:05:20.296Z,59.63
2018-04-28T07:06:20.220Z,59.15
2018-04-28T07:07:20.156Z,59.44
2018-04-28T07:08:20.083Z,59.53
2018-04-28T07:09:20.038Z,59.81
2018-04-28T07:10:19.944Z,60.58
2018-04-28T07:11:19.868Z,59.24
2018-04-28T07:12:19.792Z,59.05
2018-04-28T07:13:19.734Z,59.24
2018-04-28T07:14:19.651Z,59.63
2018-04-28T07:15:19.579Z,59.44
2018-04-28T07:16:19.506Z,58.86
2018-04-28T07:17:19.435Z,58.86
2018-04-28T07:18:19.364Z,58.58
2018-04-28T07:19:19.316Z,58.29
2018-04-28T07:20:19.214Z,58.95
2018-04-28T07:21:19.172Z,58.67
2018-04-28T07:22:19.077Z,58.95
2018-04-28T07:23:19.008Z,59.24
2018-04-28T07:24:18.939Z,59.24
2018-04-28T07:25:18.859Z,59.34
2018-04-28T07:26:18.793Z,58.86
2018-04-28T07:27:18.716Z,59.34
2018-04-28T07:28:18.647Z,59.44
2018-04-28T07:29:18.593Z,59.44
2018-04-28T07:30:18.507Z,58.29
2018-04-28T07:31:18.422Z,58.38
2018-04-28T07:32:18.358Z,58.76
2018-04-28T07:33:18.286Z,58.86
2018-04-28T07:34:18.213Z,58.76
2018-04-28T07:35:18.160Z,58.22
2018-04-28T07:36:18.070Z,58.61
2018-04-28T07:37:18.008Z,58.41
2018-04-28T07:38:17.924Z,57.93
2018-04-28T07:39:17.859Z,58.22
2018-04-28T07:40:17.782Z,58.32
2018-04-28T07:41:17.709Z,58.12
2018-04-28T07:42:17.651Z,57.93
2018-04-28T07:43:17.573Z,57.84
2018-04-28T07:44:17.499Z,57.75
2018-04-28T07:45:17.428Z,57.26
2018-04-28T07:46:17.352Z,57.36
2018-04-28T07:47:17.285Z,57.36
2018-04-28T07:48:17.212Z,57.39
2018-04-28T07:49:17.142Z,57.17
2018-04-28T07:50:17.069Z,57.65
2018-04-28T07:51:16.988Z,57.68
2018-04-28T07:52:16.924Z,57.55
2018-04-28T07:53:16.855Z,57.58
2018-04-28T07:54:16.779Z,57.29
2018-04-28T07:55:16.713Z,58.83
2018-04-28T07:56:16.641Z,57.68
2018-04-28T07:57:16.568Z,57.61
2018-04-28T07:58:16.498Z,57.32
2018-04-28T07:59:16.425Z,56.46
2018-04-28T08:00:16.384Z,56.56
2018-04-28T08:01:16.284Z,56.27
2018-04-28T08:02:16.219Z,55.60
2018-04-28T08:03:16.145Z,54.93
2018-04-28T08:04:16.067Z,55.02
2018-04-28T08:05:15.995Z,55.22
2018-04-28T08:06:15.926Z,54.83
2018-04-28T08:07:15.860Z,55.53
2018-04-28T08:08:15.787Z,55.53
2018-04-28T08:09:15.714Z,56.39
2018-04-28T08:10:15.641Z,56.01
2018-04-28T08:11:15.566Z,56.10
2018-04-28T08:12:15.499Z,55.82
2018-04-28T08:13:15.430Z,55.44
2018-04-28T08:14:15.362Z,55.15
2018-04-28T08:15:15.340Z,54.77
2018-04-28T08:16:15.210Z,55.05
2018-04-28T08:17:15.146Z,54.00
2018-04-28T08:18:15.078Z,54.00
2018-04-28T08:19:15.003Z,54.38
2018-04-28T08:20:14.933Z,54.48
2018-04-28T08:21:14.868Z,54.67
2018-04-28T08:22:14.790Z,54.48
2018-04-28T08:23:14.717Z,54.48
2018-04-28T08:24:14.646Z,54.48
2018-04-28T08:25:14.578Z,54.96
2018-04-28T08:26:14.507Z,54.38
2018-04-28T08:27:14.435Z,54.67
2018-04-28T08:28:14.371Z,53.83
2018-04-28T08:29:14.298Z,53.45
2018-04-28T08:30:14.229Z,53.16
2018-04-28T08:31:14.161Z,53.36
2018-04-28T08:32:14.090Z,52.78
2018-04-28T08:33:14.020Z,53.26
2018-04-28T08:34:13.943Z,52.87
2018-04-28T08:35:13.879Z,53.36
2018-04-28T08:36:13.802Z,53.26
2018-04-28T08:37:13.834Z,53.07
2018-04-28T08:38:13.661Z,52.62
2018-04-28T08:39:13.593Z,52.20
2018-04-28T08:40:13.520Z,52.71
2018-04-28T08:41:13.458Z,51.46
2018-04-28T08:42:13.383Z,51.63
2018-04-28T08:43:13.323Z,52.04
2018-04-28T08:44:13.249Z,51.65
2018-04-28T08:45:13.177Z,50.79
2018-04-28T08:46:13.103Z,50.89
2018-04-28T08:47:13.052Z,50.67
2018-04-28T08:48:12.960Z,50.87
2018-04-28T08:49:12.891Z,51.37
2018-04-28T08:50:12.821Z,50.60
2018-04-28T08:51:12.750Z,50.89
2018-04-28T08:52:12.679Z,50.38
2018-04-28T08:53:12.610Z,50.29
2018-04-28T08:54:12.536Z,49.84
2018-04-28T08:55:12.470Z,49.91
2018-04-28T08:56:12.397Z,49.43
2018-04-28T08:57:12.332Z,49.33
2018-04-28T08:58:12.268Z,49.05
2018-04-28T08:59:12.189Z,48.85
2018-04-28T09:00:12.120Z,49.33
2018-04-28T09:01:12.062Z,49.71
2018-04-28T09:02:11.982Z,49.62
2018-04-28T09:03:11.915Z,49.33
2018-04-28T09:04:11.840Z,49.05
2018-04-28T09:05:11.773Z,48.95
2018-04-28T09:06:11.702Z,48.88
2018-04-28T09:07:11.630Z,48.40
2018-04-28T09:08:11.561Z,47.92
2018-04-28T09:09:11.491Z,48.21
2018-04-28T09:10:11.422Z,48.21
2018-04-28T09:11:11.349Z,47.06
2018-04-28T09:12:11.281Z,47.22
2018-04-28T09:13:11.213Z,47.22
2018-04-28T09:14:11.144Z,46.48
2018-04-28T09:15:11.074Z,46.39
2018-04-28T09:16:11.001Z,46.39
2018-04-28T09:17:10.932Z,46.86
2018-04-28T09:18:10.864Z,46.60
2018-04-28T09:19:10.790Z,45.67
2018-04-28T09:20:10.722Z,44.24
2018-04-28T09:21:10.660Z,42.85
2018-04-28T09:22:10.582Z,40.25
2018-04-28T09:23:10.512Z,39.12
2018-04-28T09:24:10.448Z,37.85
2018-04-28T09:25:10.390Z,38.91
2018-04-28T09:26:10.353Z,39.87
2018-04-28T09:27:10.237Z,39.03
2018-04-28T09:28:10.168Z,37.99
2018-04-28T09:29:10.107Z,37.70
2018-04-28T09:30:10.055Z,37.51
2018-04-28T09:31:09.971Z,36.60
2018-04-28T09:32:09.899Z,35.10
2018-04-28T09:33:09.843Z,33.68
2018-04-28T09:34:09.775Z,32.15
2018-04-28T09:35:09.701Z,33.26
2018-04-28T09:36:09.642Z,33.15
2018-04-28T09:37:09.579Z,33.97
2018-04-28T09:38:09.518Z,33.85
2018-04-28T09:39:09.451Z,36.43
2018-04-28T09:40:09.386Z,37.85
2018-04-28T09:41:09.320Z,37.76
2018-04-28T09:42:09.257Z,37.84
2018-04-28T09:43:09.192Z,38.59
2018-04-28T09:44:09.128Z,39.18
2018-04-28T09:45:09.061Z,39.37
2018-04-28T09:46:09.000Z,38.62
2018-04-28T09:47:08.931Z,37.76
2018-04-28T09:48:08.874Z,37.85
2018-04-28T09:49:08.806Z,36.29
2018-04-28T09:50:08.738Z,34.22
2018-04-28T09:51:08.674Z,32.70
2018-04-28T09:52:08.608Z,31.81
2018-04-28T09:53:08.544Z,32.57
2018-04-28T09:54:08.481Z,32.86
2018-04-28T09:55:08.411Z,32.75
2018-04-28T09:56:08.349Z,33.97
2018-04-28T09:57:08.279Z,35.22
2018-04-28T09:58:08.221Z,35.22
2018-04-28T09:59:08.160Z,35.02
2018-04-28T10:00:08.093Z,34.86
2018-04-28T10:01:08.031Z,33.51
2018-04-28T10:02:07.968Z,33.40
2018-04-28T10:03:07.903Z,33.71
2018-04-28T10:04:07.843Z,34.00
2018-04-28T10:05:07.775Z,34.09
2018-04-28T10:06:07.712Z,34.17
2018-04-28T10:07:07.650Z,33.03
2018-04-28T10:08:07.584Z,32.86
2018-04-28T10:09:07.528Z,33.20
2018-04-28T10:10:07.457Z,35.38
2018-04-28T10:11:07.393Z,37.30
2018-04-28T10:12:07.335Z,37.45
2018-04-28T10:13:07.267Z,38.60
2018-04-28T10:14:07.202Z,38.59
2018-04-28T10:15:07.140Z,38.87
2018-04-28T10:16:07.071Z,39.16
2018-04-28T10:17:07.011Z,39.06
2018-04-28T10:18:06.944Z,38.96
2018-04-28T10:19:06.875Z,38.89
2018-04-28T10:20:06.865Z,39.28
2018-04-28T10:21:06.747Z,38.12
2018-04-28T10:22:06.680Z,37.85
2018-04-28T10:23:06.612Z,37.08
2018-04-28T10:24:06.547Z,36.41
2018-04-28T10:25:06.481Z,36.03
2018-04-28T10:26:06.412Z,36.47
2018-04-28T10:27:06.344Z,37.62
2018-04-28T10:28:06.290Z,38.49
2018-04-28T10:29:06.217Z,38.59
2018-04-28T10:30:06.146Z,38.78
2018-04-28T10:31:06.077Z,39.26
2018-04-28T10:32:06.014Z,39.26
2018-04-28T10:33:05.946Z,38.60
2018-04-28T10:34:05.876Z,37.45
2018-04-28T10:35:05.805Z,37.24
2018-04-28T10:36:05.739Z,37.91
2018-04-28T10:37:05.669Z,38.56
2018-04-28T10:38:05.602Z,38.95
2018-04-28T10:39:05.540Z,39.23
2018-04-28T10:40:05.464Z,39.06
2018-04-28T10:41:05.397Z,39.35
2018-04-28T10:42:05.333Z,39.26
2018-04-28T10:43:05.260Z,38.60
2018-04-28T10:44:05.197Z,38.60
2018-04-28T10:45:05.125Z,39.29
2018-04-28T10:46:05.089Z,38.32
2018-04-28T10:47:04.988Z,38.12
2018-04-28T10:48:04.921Z,38.20
2018-04-28T10:49:04.855Z,37.34
2018-04-28T10:50:04.781Z,37.16
2018-04-28T10:51:04.713Z,36.58
2018-04-28T10:52:04.644Z,36.95
2018-04-28T10:53:04.580Z,37.62
2018-04-28T10:54:04.507Z,37.24
2018-04-28T10:55:04.438Z,37.26
2018-04-28T10:56:04.371Z,37.55
2018-04-28T10:57:04.301Z,38.22
2018-04-28T10:58:04.233Z,37.74
2018-04-28T10:59:04.168Z,37.45
2018-04-28T11:00:04.095Z,37.26
2018-04-28T11:01:04.031Z,37.85
2018-04-28T11:02:03.960Z,36.88
2018-04-28T11:03:03.890Z,36.51
2018-04-28T11:04:03.822Z,36.41
2018-04-28T11:05:03.752Z,35.24
2018-04-28T11:06:03.687Z,35.63
2018-04-28T11:07:03.628Z,36.30
2018-04-28T11:08:03.547Z,36.88
2018-04-28T11:09:03.477Z,36.88
2018-04-28T11:10:03.415Z,36.41
2018-04-28T11:11:03.349Z,36.22
2018-04-28T11:12:03.274Z,35.85
2018-04-28T11:13:03.205Z,35.28
2018-04-28T11:14:03.135Z,34.88
2018-04-28T11:15:03.069Z,36.13
2018-04-28T11:16:03.003Z,36.22
2018-04-28T11:17:02.934Z,35.64
2018-04-28T11:18:02.863Z,35.85
2018-04-28T11:19:02.799Z,34.99
2018-04-28T11:20:02.796Z,34.99
2018-04-28T11:21:02.657Z,34.99
2018-04-28T11:22:02.589Z,36.03
2018-04-28T11:23:02.533Z,35.85
2018-04-28T11:24:02.455Z,35.85
2018-04-28T11:25:02.385Z,35.64
2018-04-28T11:26:02.314Z,35.26
2018-04-28T11:27:02.252Z,35.74
2018-04-28T11:28:02.180Z,35.76
2018-04-28T11:29:02.123Z,34.99
2018-04-28T11:30:02.044Z,34.62
2018-04-28T11:31:01.981Z,33.95
2018-04-28T11:32:01.908Z,33.85
2018-04-28T11:33:01.943Z,33.93
2018-04-28T11:34:01.785Z,34.70
2018-04-28T11:35:01.704Z,34.31
2018-04-28T11:36:01.654Z,34.41
2018-04-28T11:37:01.570Z,34.61
2018-04-28T11:38:01.523Z,33.95
2018-04-28T11:39:01.434Z,33.10
2018-04-28T11:40:01.386Z,33.18
2018-04-28T11:41:01.290Z,33.64
2018-04-28T11:42:01.240Z,34.05
2018-04-28T11:43:01.161Z,34.05
2018-04-28T11:44:01.094Z,33.10
2018-04-28T11:45:01.042Z,33.56
2018-04-28T11:46:00.960Z,32.82
2018-04-28T11:47:00.891Z,32.25
2018-04-28T11:48:00.823Z,32.81
2018-04-28T11:49:00.763Z,33.29
2018-04-28T11:50:00.695Z,34.12
2018-04-28T11:51:00.625Z,33.93
2018-04-28T11:52:00.556Z,34.61
2018-04-28T11:53:00.492Z,34.89
2018-04-28T11:54:00.422Z,34.91
2018-04-28T11:55:00.360Z,34.72
2018-04-28T11:56:00.290Z,34.61
2018-04-28T11:57:00.220Z,34.72
2018-04-28T11:58:00.160Z,34.61
2018-04-28T11:59:00.095Z,34.88
2018-04-28T12:00:00.020Z,35.55
2018-04-28T12:00:59.950Z,35.24
2018-04-28T12:01:59.882Z,36.01
2018-04-28T12:02:59.817Z,36.20
2018-04-28T12:03:59.750Z,36.51
2018-04-28T12:04:59.680Z,35.18
2018-04-28T12:05:59.612Z,34.89
2018-04-28T12:06:59.547Z,34.99
2018-04-28T12:07:59.484Z,34.05
2018-04-28T12:08:59.407Z,34.88
2018-04-28T12:09:59.341Z,34.99
2018-04-28T12:10:59.269Z,35.18
2018-04-28T12:11:59.205Z,34.99
2018-04-28T12:12:59.141Z,35.08
2018-04-28T12:13:59.071Z,34.03
2018-04-28T12:14:59.004Z,34.70
2018-04-28T12:15:58.931Z,34.99
2018-04-28T12:16:58.882Z,34.99
2018-04-28T12:17:58.803Z,34.78
2018-04-28T12:18:58.729Z,34.78
2018-04-28T12:19:58.660Z,34.88
2018-04-28T12:20:58.648Z,35.38
2018-04-28T12:21:58.526Z,35.38
2018-04-28T12:22:58.453Z,35.00
2018-04-28T12:23:58.391Z,34.91
2018-04-28T12:24:58.327Z,34.05
2018-04-28T12:25:58.251Z,34.03
2018-04-28T12:26:58.184Z,34.31
2018-04-28T12:27:58.116Z,34.22
2018-04-28T12:28:58.049Z,34.03
2018-04-28T12:29:58.004Z,34.22
2018-04-28T12:30:57.912Z,34.12
2018-04-28T12:31:57.842Z,35.08
2018-04-28T12:32:57.772Z,35.38
2018-04-28T12:33:57.709Z,35.64
2018-04-28T12:34:57.637Z,35.57
2018-04-28T12:35:57.613Z,35.08
2018-04-28T12:36:57.502Z,34.78
2018-04-28T12:37:57.434Z,34.99
2018-04-28T12:38:57.366Z,34.80
2018-04-28T12:39:57.294Z,34.70
2018-04-28T12:40:57.230Z,34.72
2018-04-28T12:41:57.161Z,35.00
2018-04-28T12:42:57.091Z,35.20
2018-04-28T12:43:57.025Z,35.10
2018-04-28T12:44:56.956Z,35.41
2018-04-28T12:45:56.889Z,35.10
2018-04-28T12:46:56.832Z,34.99
2018-04-28T12:47:56.750Z,35.18
2018-04-28T12:48:56.691Z,35.66
2018-04-28T12:49:56.611Z,35.08
2018-04-28T12:50:56.546Z,34.89
2018-04-28T12:51:56.478Z,35.66